createdAt,value
2018-07-21T00:01:05.643Z,26.00
2018-07-21T00:03:32.962Z,26.00
2018-07-21T00:06:00.359Z,25.90
2018-07-21T00:08:27.718Z,25.90
2018-07-21T00:10:55.021Z,25.90
2018-07-21T00:13:22.339Z,25.90
2018-07-21T00:15:49.705Z,25.90
2018-07-21T00:18:17.013Z,25.80
2018-07-21T00:20:44.350Z,25.90
2018-07-21T00:23:11.666Z,25.80
2018-07-21T00:25:38.996Z,25.80
2018-07-21T00:28:06.314Z,25.70
2018-07-21T00:33:00.850Z,25.70
2018-07-21T00:35:28.151Z,25.70
2018-07-21T00:37:55.488Z,25.70
2018-07-21T00:40:22.808Z,25.70
2018-07-21T00:42:50.126Z,25.70
2018-07-21T00:45:17.450Z,25.60
2018-07-21T00:47:44.867Z,25.50
2018-07-21T00:50:12.189Z,25.40
2018-07-21T00:52:39.500Z,25.40
2018-07-21T00:55:06.825Z,25.30
2018-07-21T00:57:34.132Z,25.30
2018-07-21T01:00:01.473Z,25.20
2018-07-21T01:02:28.787Z,25.10
2018-07-21T01:04:56.110Z,25.10
2018-07-21T01:07:23.919Z,25.10
2018-07-21T01:09:51.242Z,25.10
2018-07-21T01:12:18.571Z,25.10
2018-07-21T01:14:45.866Z,25.00
2018-07-21T01:17:13.210Z,24.90
2018-07-21T01:19:41.462Z,24.60
2018-07-21T01:22:08.788Z,24.60
2018-07-21T01:24:36.107Z,24.60
2018-07-21T01:27:03.467Z,24.50
2018-07-21T01:29:30.790Z,24.50
2018-07-21T01:31:58.128Z,24.50
2018-07-21T01:34:25.454Z,24.60
2018-07-21T01:36:52.771Z,24.70
2018-07-21T01:39:20.130Z,24.70
2018-07-21T01:41:47.543Z,24.80
2018-07-21T01:44:14.867Z,24.90
2018-07-21T01:46:42.266Z,24.90
2018-07-21T01:49:09.581Z,25.00
2018-07-21T01:51:36.898Z,24.90
2018-07-21T01:54:04.227Z,24.90
2018-07-21T01:56:31.615Z,24.90
2018-07-21T01:58:59.010Z,24.90
2018-07-21T02:01:26.308Z,24.90
2018-07-21T02:03:53.646Z,24.90
2018-07-21T02:06:20.974Z,24.80
2018-07-21T02:08:48.278Z,24.70
2018-07-21T02:11:15.609Z,24.70
2018-07-21T02:13:42.923Z,24.60
2018-07-21T02:16:10.255Z,24.60
2018-07-21T02:18:37.574Z,24.60
2018-07-21T02:21:05.035Z,24.70
2018-07-21T02:23:32.374Z,24.70
2018-07-21T02:25:59.719Z,24.80
2018-07-21T02:28:27.022Z,24.70
2018-07-21T02:30:54.339Z,24.70
2018-07-21T02:33:21.673Z,24.60
2018-07-21T02:35:49.011Z,24.60
2018-07-21T02:38:16.340Z,24.60
2018-07-21T02:40:43.654Z,24.60
2018-07-21T02:43:10.983Z,24.60
2018-07-21T02:45:38.352Z,24.60
2018-07-21T02:48:05.643Z,24.60
2018-07-21T02:50:33.091Z,24.50
2018-07-21T02:53:00.415Z,24.50
2018-07-21T02:55:27.758Z,24.50
2018-07-21T02:57:55.063Z,24.50
2018-07-21T03:00:22.649Z,24.40
2018-07-21T03:02:49.978Z,24.40
2018-07-21T03:05:17.300Z,24.30
2018-07-21T03:07:44.622Z,24.20
2018-07-21T03:10:11.982Z,24.20
2018-07-21T03:12:39.270Z,24.10
2018-07-21T03:15:06.595Z,24.10
2018-07-21T03:17:33.956Z,24.00
2018-07-21T03:20:01.307Z,23.90
2018-07-21T03:22:28.666Z,23.80
2018-07-21T03:24:55.955Z,23.80
2018-07-21T03:29:50.459Z,23.10
2018-07-21T03:32:17.797Z,22.60
2018-07-21T03:34:45.121Z,22.40
2018-07-21T03:37:12.429Z,22.40
2018-07-21T03:39:39.755Z,22.20
2018-07-21T03:42:07.076Z,22.30
2018-07-21T03:44:34.418Z,22.10
2018-07-21T03:47:01.754Z,22.20
2018-07-21T03:49:29.071Z,22.20
2018-07-21T03:51:56.414Z,22.10
2018-07-21T03:54:23.772Z,21.80
2018-07-21T03:56:51.091Z,21.60
2018-07-21T03:59:18.420Z,21.40
2018-07-21T04:01:45.847Z,21.50
2018-07-21T04:04:13.169Z,21.40
2018-07-21T04:06:40.504Z,21.30
2018-07-21T04:09:07.939Z,21.40
2018-07-21T04:11:35.268Z,21.40
2018-07-21T04:14:02.611Z,21.20
2018-07-21T04:16:30.017Z,21.20
2018-07-21T04:18:57.283Z,21.00
2018-07-21T04:21:24.623Z,21.10
2018-07-21T04:23:51.939Z,21.10
2018-07-21T04:26:19.284Z,21.00
2018-07-21T04:28:46.617Z,20.90
2018-07-21T04:31:13.939Z,20.90
2018-07-21T04:33:41.283Z,21.00
2018-07-21T04:36:08.668Z,20.90
2018-07-21T04:38:35.987Z,20.70
2018-07-21T04:41:03.316Z,20.70
2018-07-21T04:43:30.669Z,20.70
2018-07-21T04:45:58.049Z,20.60
2018-07-21T04:48:25.487Z,20.60
2018-07-21T04:53:20.007Z,20.50
2018-07-21T04:55:47.339Z,20.40
2018-07-21T04:58:14.675Z,20.40
2018-07-21T05:00:42.262Z,20.40
2018-07-21T05:03:09.576Z,20.50
2018-07-21T05:05:36.893Z,20.70
2018-07-21T05:08:04.228Z,21.00
2018-07-21T05:10:31.587Z,21.30
2018-07-21T05:12:58.963Z,21.60
2018-07-21T05:15:26.446Z,21.70
2018-07-21T05:17:53.752Z,21.80
2018-07-21T05:20:21.088Z,21.90
2018-07-21T05:22:48.425Z,21.80
2018-07-21T05:25:15.747Z,21.70
2018-07-21T05:27:43.354Z,21.50
2018-07-21T05:30:10.727Z,21.40
2018-07-21T05:32:38.010Z,21.30
2018-07-21T05:35:05.326Z,21.40
2018-07-21T05:37:32.663Z,21.50
2018-07-21T05:40:00.036Z,21.60
2018-07-21T05:42:27.338Z,21.70
2018-07-21T05:44:54.670Z,21.70
2018-07-21T05:47:22.011Z,21.70
2018-07-21T05:49:49.366Z,21.70
2018-07-21T05:52:16.730Z,21.90
2018-07-21T05:54:44.051Z,22.00
2018-07-21T05:57:11.401Z,21.90
2018-07-21T05:59:38.725Z,21.90
2018-07-21T06:02:06.307Z,22.00
2018-07-21T06:04:33.639Z,22.00
2018-07-21T06:07:00.974Z,21.90
2018-07-21T06:09:28.364Z,22.00
2018-07-21T06:11:55.705Z,22.00
2018-07-21T06:14:23.023Z,22.10
2018-07-21T06:16:50.402Z,22.00
2018-07-21T06:19:17.833Z,22.10
2018-07-21T06:21:45.159Z,22.00
2018-07-21T06:24:12.490Z,22.00
2018-07-21T06:26:39.821Z,22.00
2018-07-21T06:29:07.120Z,22.10
2018-07-21T06:31:34.467Z,22.20
2018-07-21T06:34:01.795Z,22.30
2018-07-21T06:36:29.191Z,22.30
2018-07-21T06:38:56.543Z,22.30
2018-07-21T06:41:23.859Z,22.40
2018-07-21T06:43:51.175Z,22.60
2018-07-21T06:46:18.511Z,22.60
2018-07-21T06:48:45.810Z,22.80
2018-07-21T06:51:13.149Z,22.90
2018-07-21T06:53:40.502Z,22.90
2018-07-21T06:56:07.862Z,22.90
2018-07-21T06:58:35.179Z,22.90
2018-07-21T07:03:36.811Z,23.10
2018-07-21T07:06:04.214Z,23.10
2018-07-21T07:08:31.586Z,23.20
2018-07-21T07:10:58.940Z,23.40
2018-07-21T07:13:26.271Z,23.50
2018-07-21T07:15:53.616Z,23.00
2018-07-21T07:18:20.924Z,22.50
2018-07-21T07:20:48.268Z,22.00
2018-07-21T07:23:15.605Z,21.70
2018-07-21T07:25:42.907Z,21.80
2018-07-21T07:28:10.231Z,21.90
2018-07-21T07:30:37.551Z,22.00
2018-07-21T07:33:04.888Z,22.00
2018-07-21T07:35:32.260Z,22.00
2018-07-21T07:37:59.608Z,22.10
2018-07-21T08:45:59.196Z,21.30
2018-07-21T08:48:26.591Z,21.50
2018-07-21T08:50:53.935Z,22.10
2018-07-21T08:53:21.328Z,22.70
2018-07-21T08:55:48.744Z,23.10
2018-07-21T08:58:16.047Z,23.50
2018-07-21T09:00:43.508Z,23.70
2018-07-21T09:03:11.077Z,23.90
2018-07-21T09:05:38.614Z,24.10
2018-07-21T09:08:06.084Z,24.20
2018-07-21T09:10:33.545Z,24.20
2018-07-21T09:13:01.047Z,24.10
2018-07-21T09:15:28.528Z,24.10
2018-07-21T09:17:56.067Z,24.20
2018-07-21T09:20:23.399Z,24.10
2018-07-21T09:22:50.796Z,23.60
2018-07-21T09:25:18.116Z,23.10
2018-07-21T09:27:45.464Z,22.60
2018-07-21T09:30:12.787Z,22.30
2018-07-21T09:32:40.127Z,21.90
2018-07-21T09:35:07.510Z,21.70
2018-07-21T09:37:35.041Z,21.60
2018-07-21T09:40:02.556Z,21.60
2018-07-21T09:42:29.888Z,21.60
2018-07-21T09:44:57.248Z,21.60
2018-07-21T09:47:24.596Z,21.60
2018-07-21T09:49:51.930Z,21.60
2018-07-21T09:52:19.268Z,21.70
2018-07-21T09:54:46.693Z,21.90
2018-07-21T09:57:14.038Z,22.00
2018-07-21T09:59:41.432Z,22.00
2018-07-21T10:02:08.931Z,22.10
2018-07-21T10:04:36.263Z,22.20
2018-07-21T10:07:03.991Z,22.30
2018-07-21T10:09:31.426Z,22.20
2018-07-21T10:11:58.790Z,22.20
2018-07-21T10:14:26.136Z,22.20
2018-07-21T10:16:53.483Z,22.30
2018-07-21T10:19:20.826Z,22.10
2018-07-21T10:21:48.148Z,22.20
2018-07-21T10:24:15.527Z,22.20
2018-07-21T10:26:42.854Z,22.30
2018-07-21T10:29:10.195Z,22.40
2018-07-21T10:31:37.684Z,22.50
2018-07-21T10:34:05.187Z,22.60
2018-07-21T10:36:32.589Z,22.90
2018-07-21T10:39:00.033Z,23.10
2018-07-21T10:41:27.464Z,23.00
2018-07-21T10:43:54.813Z,23.00
2018-07-21T10:46:22.121Z,23.10
2018-07-21T10:48:49.452Z,23.20
2018-07-21T10:51:16.779Z,23.50
2018-07-21T10:53:44.101Z,23.60
2018-07-21T10:56:11.477Z,23.60
2018-07-21T10:58:38.798Z,23.60
2018-07-21T11:01:06.603Z,23.80
2018-07-21T11:03:34.112Z,23.90
2018-07-21T11:06:01.764Z,23.90
2018-07-21T11:08:29.162Z,23.80
2018-07-21T11:10:56.516Z,23.70
2018-07-21T11:13:23.861Z,23.80
2018-07-21T11:15:51.214Z,23.90
2018-07-21T11:18:18.589Z,24.00
2018-07-21T11:20:45.927Z,24.10
2018-07-21T11:23:13.251Z,24.10
2018-07-21T11:25:40.828Z,24.20
2018-07-21T11:28:08.164Z,24.30
2018-07-21T11:30:35.584Z,24.40
2018-07-21T11:33:03.022Z,24.40
2018-07-21T11:35:30.484Z,24.30
2018-07-21T11:37:58.552Z,24.30
2018-07-21T11:40:25.911Z,24.20
2018-07-21T11:42:53.340Z,24.10
2018-07-21T11:45:20.690Z,24.00
2018-07-21T11:47:48.067Z,24.10
2018-07-21T11:50:15.418Z,23.90
2018-07-21T11:52:42.774Z,23.80
2018-07-21T11:55:10.108Z,23.80
2018-07-21T11:57:37.459Z,23.80
2018-07-21T12:00:04.948Z,23.80
2018-07-21T12:02:32.323Z,23.80
2018-07-21T12:04:59.752Z,23.90
2018-07-21T12:07:27.116Z,24.00
2018-07-21T12:09:54.508Z,23.90
2018-07-21T12:12:21.899Z,23.80
2018-07-21T12:14:49.255Z,23.80
2018-07-21T12:17:16.590Z,23.80
2018-07-21T12:19:43.943Z,23.80
2018-07-21T12:22:11.278Z,23.90
2018-07-21T12:27:05.867Z,23.90
2018-07-21T12:29:33.314Z,23.80
2018-07-21T12:32:00.758Z,23.70
2018-07-21T12:34:28.132Z,23.70
2018-07-21T12:36:55.539Z,23.80
2018-07-21T12:39:22.988Z,23.90
2018-07-21T12:41:50.355Z,23.90
2018-07-21T12:44:17.698Z,23.90
2018-07-21T12:46:45.025Z,24.10
2018-07-21T12:49:12.375Z,24.10
2018-07-21T12:51:39.730Z,24.20
2018-07-21T12:54:07.064Z,24.20
2018-07-21T12:56:34.573Z,24.20
2018-07-21T12:59:02.029Z,24.30
2018-07-21T13:01:29.444Z,24.20
2018-07-21T13:03:56.893Z,24.20
2018-07-21T13:06:24.310Z,24.10
2018-07-21T13:08:51.641Z,24.10
2018-07-21T13:11:18.955Z,24.20
2018-07-21T13:13:46.326Z,24.30
2018-07-21T13:16:13.627Z,24.40
2018-07-21T13:18:40.979Z,24.50
2018-07-21T13:21:08.345Z,24.60
2018-07-21T13:23:35.743Z,24.70
2018-07-21T13:26:03.120Z,24.70
2018-07-21T13:28:30.521Z,24.70
2018-07-21T13:30:57.887Z,24.60
2018-07-21T13:33:25.235Z,24.60
2018-07-21T13:35:52.634Z,24.70
2018-07-21T13:38:19.980Z,24.80
2018-07-21T13:40:47.297Z,24.90
2018-07-21T13:43:14.652Z,24.90
2018-07-21T13:45:41.987Z,24.90
2018-07-21T13:48:09.332Z,25.00
2018-07-21T13:50:36.834Z,25.00
2018-07-21T13:53:04.215Z,25.00
2018-07-21T13:55:32.296Z,25.00
2018-07-21T13:57:59.647Z,24.90
2018-07-21T14:00:27.211Z,24.90
2018-07-21T14:02:54.598Z,25.00
2018-07-21T14:05:21.954Z,24.90
2018-07-21T14:07:49.375Z,24.90
2018-07-21T14:12:44.015Z,24.90
2018-07-21T14:15:11.346Z,24.90
2018-07-21T14:17:38.754Z,24.90
2018-07-21T14:20:06.099Z,25.00
2018-07-21T14:22:33.575Z,25.00
2018-07-21T14:25:00.954Z,25.00
2018-07-21T14:27:28.713Z,25.00
2018-07-21T14:29:56.183Z,25.20
2018-07-21T14:32:23.453Z,25.20
2018-07-21T14:34:50.805Z,25.20
2018-07-21T14:37:18.110Z,25.30
2018-07-21T14:39:45.464Z,25.30
2018-07-21T14:42:12.851Z,25.30
2018-07-21T14:44:40.346Z,25.30
2018-07-21T14:47:07.684Z,25.30
2018-07-21T14:49:35.149Z,25.40
2018-07-21T14:52:02.647Z,25.50
2018-07-21T14:54:30.085Z,25.60
2018-07-21T14:56:58.064Z,25.60
2018-07-21T14:59:25.420Z,25.60
2018-07-21T15:01:52.836Z,25.70
2018-07-21T15:04:20.174Z,25.90
2018-07-21T15:06:47.543Z,25.90
2018-07-21T15:09:14.875Z,25.90
2018-07-21T15:11:42.205Z,25.90
2018-07-21T15:14:09.523Z,25.80
2018-07-21T15:16:36.941Z,25.80
2018-07-21T15:19:04.231Z,25.90
2018-07-21T15:21:31.722Z,25.90
2018-07-21T15:23:59.279Z,26.00
2018-07-21T15:26:26.594Z,26.10
2018-07-21T15:28:53.948Z,26.20
2018-07-21T15:31:21.316Z,26.30
2018-07-21T15:33:48.625Z,26.40
2018-07-21T15:36:15.996Z,26.40
2018-07-21T15:38:43.328Z,26.40
2018-07-21T15:41:10.655Z,26.60
2018-07-21T15:43:38.214Z,26.60
2018-07-21T15:46:05.793Z,26.70
2018-07-21T15:48:33.148Z,26.70
2018-07-21T15:53:27.798Z,26.80
2018-07-21T15:58:22.428Z,26.90
2018-07-21T16:00:49.743Z,27.00
2018-07-21T16:03:17.158Z,27.00
2018-07-21T16:08:11.696Z,26.80
2018-07-21T16:10:39.051Z,26.80
2018-07-21T16:13:06.392Z,26.60
2018-07-21T16:15:33.770Z,26.40
2018-07-21T16:18:01.199Z,26.20
2018-07-21T16:20:28.649Z,26.00
2018-07-21T16:22:56.031Z,25.90
2018-07-21T16:25:23.383Z,25.80
2018-07-21T16:27:50.776Z,25.90
2018-07-21T16:30:18.118Z,25.90
2018-07-21T16:32:45.463Z,25.80
2018-07-21T16:35:12.808Z,25.70
2018-07-21T16:37:40.138Z,25.60
2018-07-21T16:40:07.610Z,25.50
2018-07-21T16:42:34.929Z,25.50
2018-07-21T16:45:02.339Z,25.60
2018-07-21T16:47:29.864Z,25.60
2018-07-21T16:49:57.247Z,25.60
2018-07-21T16:52:24.924Z,25.50
2018-07-21T16:54:52.508Z,25.40
2018-07-21T16:57:20.216Z,25.50
2018-07-21T16:59:47.823Z,25.50
2018-07-21T17:02:15.184Z,25.50
2018-07-21T17:04:42.600Z,25.40
2018-07-21T17:07:09.972Z,25.40
2018-07-21T17:09:37.647Z,25.40
2018-07-21T17:12:05.067Z,25.40
2018-07-21T17:14:32.534Z,25.40
2018-07-21T17:17:00.048Z,25.40
2018-07-21T17:19:27.447Z,25.40
2018-07-21T17:21:54.878Z,25.50
2018-07-21T17:24:22.219Z,25.40
2018-07-21T17:26:49.559Z,25.40
2018-07-21T17:29:16.969Z,25.40
2018-07-21T17:31:44.282Z,25.40
2018-07-21T17:34:11.639Z,25.40
2018-07-21T17:36:39.000Z,25.50
2018-07-21T17:39:07.087Z,25.40
2018-07-21T17:41:34.858Z,25.40
2018-07-21T17:44:02.383Z,25.40
2018-07-21T17:46:29.739Z,25.30
2018-07-21T17:48:57.639Z,25.30
2018-07-21T17:51:25.206Z,25.30
2018-07-21T17:53:52.558Z,25.20
2018-07-21T17:56:19.949Z,25.20
2018-07-21T17:58:47.332Z,25.10
2018-07-21T18:01:14.657Z,25.10
2018-07-21T18:03:42.000Z,25.00
2018-07-21T18:06:09.583Z,24.90
2018-07-21T18:08:36.982Z,24.90
2018-07-21T18:13:31.578Z,24.80
2018-07-21T18:15:58.993Z,24.70
2018-07-21T18:18:26.427Z,24.60
2018-07-21T18:20:53.756Z,24.60
2018-07-21T18:23:21.235Z,24.50
2018-07-21T18:25:48.655Z,24.50
2018-07-21T18:28:16.014Z,24.40
2018-07-21T18:30:44.048Z,24.40
2018-07-21T18:33:11.390Z,24.30
2018-07-21T18:35:38.767Z,24.30
2018-07-21T18:38:06.117Z,24.30
2018-07-21T18:40:34.058Z,24.30
2018-07-21T18:43:01.380Z,24.30
2018-07-21T18:45:28.791Z,24.30
2018-07-21T18:47:56.272Z,24.30
2018-07-21T18:50:23.608Z,24.30
2018-07-21T18:52:51.007Z,24.30
2018-07-21T18:55:18.432Z,24.20
2018-07-21T18:57:45.847Z,24.20
2018-07-21T19:00:13.345Z,24.10
2018-07-21T19:02:40.688Z,23.80
2018-07-21T19:05:08.067Z,23.40
2018-07-21T19:07:35.423Z,23.10
2018-07-21T19:10:02.793Z,22.90
2018-07-21T19:12:30.128Z,22.80
2018-07-21T19:17:24.830Z,22.60
2018-07-21T19:19:52.139Z,22.40
2018-07-21T19:22:19.489Z,22.40
2018-07-21T19:24:46.823Z,22.50
2018-07-21T19:27:14.894Z,22.70
2018-07-21T19:29:42.314Z,22.90
2018-07-21T19:32:09.723Z,22.90
2018-07-21T19:34:37.137Z,22.90
2018-07-21T19:37:04.502Z,22.80
2018-07-21T19:39:31.868Z,22.80
2018-07-21T19:41:59.343Z,22.80
2018-07-21T19:44:26.679Z,22.80
2018-07-21T19:46:54.017Z,22.70
2018-07-21T19:49:21.457Z,22.50
2018-07-21T19:51:48.836Z,22.30
2018-07-21T19:54:16.164Z,22.30
2018-07-21T19:56:43.704Z,22.50
2018-07-21T19:59:11.299Z,22.60
2018-07-21T20:01:38.847Z,22.70
2018-07-21T20:04:06.310Z,22.60
2018-07-21T20:06:33.647Z,22.50
2018-07-21T20:09:01.061Z,22.50
2018-07-21T20:11:28.386Z,22.50
2018-07-21T20:13:55.774Z,22.50
2018-07-21T20:16:23.169Z,22.60
2018-07-21T20:18:50.591Z,22.60
2018-07-21T20:21:17.985Z,22.60
2018-07-21T20:23:45.355Z,22.50
2018-07-21T20:26:12.702Z,22.50
2018-07-21T20:28:40.082Z,22.40
2018-07-21T20:31:07.429Z,22.30
2018-07-21T20:33:34.796Z,22.30
2018-07-21T20:36:02.192Z,22.30
2018-07-21T20:38:29.511Z,22.20
2018-07-21T20:40:56.847Z,22.20
2018-07-21T20:43:24.199Z,22.00
2018-07-21T20:45:51.528Z,22.10
2018-07-21T20:48:18.908Z,22.20
2018-07-21T20:50:46.190Z,22.20
2018-07-21T20:53:13.572Z,22.20
2018-07-21T20:55:40.971Z,22.20
2018-07-21T20:58:08.339Z,22.20
2018-07-21T21:00:35.696Z,22.20
2018-07-21T21:03:03.031Z,22.20
2018-07-21T21:05:30.395Z,22.20
2018-07-21T21:07:57.749Z,22.30
2018-07-21T21:10:25.098Z,22.40
2018-07-21T21:12:52.851Z,22.30
2018-07-21T21:15:20.184Z,22.30
2018-07-21T21:17:47.545Z,22.30
2018-07-21T21:20:14.874Z,22.10
2018-07-21T21:22:42.250Z,22.00
2018-07-21T21:25:09.540Z,22.00
2018-07-21T21:27:36.961Z,22.00
2018-07-21T21:30:04.336Z,21.90
2018-07-21T21:32:31.718Z,22.00
2018-07-21T21:34:59.111Z,21.90
2018-07-21T21:37:26.607Z,21.70
2018-07-21T21:39:53.991Z,21.50
2018-07-21T21:42:21.500Z,21.40
2018-07-21T21:44:48.761Z,21.30
2018-07-21T21:47:16.372Z,21.30
2018-07-21T21:49:43.706Z,21.40
2018-07-21T21:52:11.097Z,21.40
2018-07-21T21:54:38.512Z,21.60
2018-07-21T21:57:05.867Z,21.70
2018-07-21T21:59:33.236Z,21.80
2018-07-21T22:02:00.614Z,21.80
2018-07-21T22:04:27.949Z,21.90
2018-07-21T22:06:55.431Z,21.90
2018-07-21T22:09:22.818Z,22.00
2018-07-21T22:11:50.185Z,22.00
2018-07-21T22:14:17.587Z,21.90
2018-07-21T22:16:45.150Z,21.90
2018-07-21T22:19:12.516Z,21.90
2018-07-21T22:21:39.860Z,21.90
2018-07-21T22:24:07.206Z,21.80
2018-07-21T22:26:34.542Z,21.70
2018-07-21T22:29:01.912Z,21.70
2018-07-21T22:31:29.327Z,21.60
2018-07-21T22:33:56.926Z,21.70
2018-07-21T22:36:24.379Z,21.70
2018-07-21T22:38:51.731Z,21.60
2018-07-21T22:41:19.047Z,21.40
2018-07-21T22:46:13.610Z,21.20
2018-07-21T22:48:40.944Z,21.20
2018-07-21T22:51:08.265Z,21.20
2018-07-21T22:53:35.627Z,21.20
2018-07-21T22:56:02.971Z,21.20
2018-07-21T22:58:30.302Z,21.10
2018-07-21T23:00:57.634Z,21.00
2018-07-21T23:03:24.967Z,20.90
2018-07-21T23:05:52.328Z,20.90
2018-07-21T23:08:19.637Z,20.90
2018-07-21T23:10:47.078Z,20.90
2018-07-21T23:13:14.389Z,20.80
2018-07-21T23:15:41.751Z,20.70
2018-07-21T23:18:09.087Z,20.80
2018-07-21T23:20:36.406Z,20.80
2018-07-21T23:23:03.733Z,20.90
2018-07-21T23:25:31.032Z,20.90
2018-07-21T23:27:58.372Z,20.90
2018-07-21T23:30:25.725Z,20.80
2018-07-21T23:32:53.091Z,20.80
2018-07-21T23:35:20.419Z,20.70
2018-07-21T23:37:47.739Z,20.70
2018-07-21T23:40:15.212Z,20.70
2018-07-21T23:42:42.563Z,20.60
2018-07-21T23:45:09.892Z,20.60
2018-07-21T23:47:37.219Z,20.60
2018-07-21T23:50:04.566Z,20.60
2018-07-21T23:52:31.884Z,20.60
2018-07-21T23:54:59.233Z,20.60
2018-07-21T23:57:26.555Z,20.60
2018-07-21T23:59:53.894Z,20.60
